sensor_id;sensor_type;location;lat;lon;timestamp;P1;P2;P0
68713;PMS7003;55690;51.566;19.198;2022-08-20T00:03:13;13;13;12
68713;PMS7003;55690;51.566;19.198;2022-08-20T00:07:20;13;13;12
68713;PMS7003;55690;51.566;19.198;2022-08-20T00:11:22;17;15;10
68713;PMS7003;55690;51.566;19.198;2022-08-20T00:15:30;15;15;10
68713;PMS7003;55690;51.566;19.198;2022-08-20T00:19:34;13;13;11
68713;PMS7003;55690;51.566;19.198;2022-08-20T00:23:42;10;10;8
68713;PMS7003;55690;51.566;19.198;2022-08-20T00:27:45;17;14;8
68713;PMS7003;55690;51.566;19.198;2022-08-20T00:31:50;11;11;10
68713;PMS7003;55690;51.566;19.198;2022-08-20T00:35:56;16;16;13
68713;PMS7003;55690;51.566;19.198;2022-08-20T00:40:04;18;11;9
68713;PMS7003;55690;51.566;19.198;2022-08-20T00:44:11;9;9;7
68713;PMS7003;55690;51.566;19.198;2022-08-20T00:48:18;16;14;10
68713;PMS7003;55690;51.566;19.198;2022-08-20T00:52:21;15;11;8
68713;PMS7003;55690;51.566;19.198;2022-08-20T00:56:27;14;14;11
68713;PMS7003;55690;51.566;19.198;2022-08-20T01:00:38;17;14;11
68713;PMS7003;55690;51.566;19.198;2022-08-20T01:04:42;15;15;10
68713;PMS7003;55690;51.566;19.198;2022-08-20T01:08:54;11;10;8
68713;PMS7003;55690;51.566;19.198;2022-08-20T01:12:56;11;11;8
68713;PMS7003;55690;51.566;19.198;2022-08-20T01:16:59;12;12;10
68713;PMS7003;55690;51.566;19.198;2022-08-20T01:21:04;16;16;11
68713;PMS7003;55690;51.566;19.198;2022-08-20T01:25:13;21;16;12
68713;PMS7003;55690;51.566;19.198;2022-08-20T01:29:23;20;13;9
68713;PMS7003;55690;51.566;19.198;2022-08-20T01:33:29;13;11;10
68713;PMS7003;55690;51.566;19.198;2022-08-20T01:37:32;18;13;11
68713;PMS7003;55690;51.566;19.198;2022-08-20T01:45:50;18;16;10
68713;PMS7003;55690;51.566;19.198;2022-08-20T01:49:54;23;16;13
68713;PMS7003;55690;51.566;19.198;2022-08-20T01:53:59;12;12;9
68713;PMS7003;55690;51.566;19.198;2022-08-20T01:58:01;10;10;8
68713;PMS7003;55690;51.566;19.198;2022-08-20T02:02:05;13;13;11
68713;PMS7003;55690;51.566;19.198;2022-08-20T02:06:12;16;15;12
68713;PMS7003;55690;51.566;19.198;2022-08-20T02:10:18;14;13;11
68713;PMS7003;55690;51.566;19.198;2022-08-20T02:14:24;11;11;10
68713;PMS7003;55690;51.566;19.198;2022-08-20T02:18:30;12;12;11
68713;PMS7003;55690;51.566;19.198;2022-08-20T02:22:44;18;12;10
68713;PMS7003;55690;51.566;19.198;2022-08-20T02:26:47;9;9;8
68713;PMS7003;55690;51.566;19.198;2022-08-20T02:30:50;19;11;8
68713;PMS7003;55690;51.566;19.198;2022-08-20T02:34:55;20;13;11
68713;PMS7003;55690;51.566;19.198;2022-08-20T02:39:02;28;13;10
68713;PMS7003;55690;51.566;19.198;2022-08-20T02:43:07;16;16;14
68713;PMS7003;55690;51.566;19.198;2022-08-20T02:47:13;17;9;9
68713;PMS7003;55690;51.566;19.198;2022-08-20T02:51:19;23;17;15
68713;PMS7003;55690;51.566;19.198;2022-08-20T02:55:26;14;13;12
68713;PMS7003;55690;51.566;19.198;2022-08-20T02:59:32;13;9;7
68713;PMS7003;55690;51.566;19.198;2022-08-20T03:03:38;14;14;10
68713;PMS7003;55690;51.566;19.198;2022-08-20T03:07:45;13;11;9
68713;PMS7003;55690;51.566;19.198;2022-08-20T03:11:50;19;10;10
68713;PMS7003;55690;51.566;19.198;2022-08-20T03:15:57;21;13;11
68713;PMS7003;55690;51.566;19.198;2022-08-20T03:20:04;19;14;10
68713;PMS7003;55690;51.566;19.198;2022-08-20T03:24:09;18;12;9
68713;PMS7003;55690;51.566;19.198;2022-08-20T03:28:15;12;11;9
68713;PMS7003;55690;51.566;19.198;2022-08-20T03:32:21;17;17;12
68713;PMS7003;55690;51.566;19.198;2022-08-20T03:36:28;19;16;11
68713;PMS7003;55690;51.566;19.198;2022-08-20T03:40:34;15;15;10
68713;PMS7003;55690;51.566;19.198;2022-08-20T03:44:39;18;18;14
68713;PMS7003;55690;51.566;19.198;2022-08-20T03:48:46;19;18;14
68713;PMS7003;55690;51.566;19.198;2022-08-20T03:52:52;12;12;8
68713;PMS7003;55690;51.566;19.198;2022-08-20T03:56:58;14;12;11
68713;PMS7003;55690;51.566;19.198;2022-08-20T04:01:05;16;13;9
68713;PMS7003;55690;51.566;19.198;2022-08-20T04:05:10;13;12;8
68713;PMS7003;55690;51.566;19.198;2022-08-20T04:09:16;17;16;13
68713;PMS7003;55690;51.566;19.198;2022-08-20T04:13:31;18;18;12
68713;PMS7003;55690;51.566;19.198;2022-08-20T04:17:54;25;18;12
68713;PMS7003;55690;51.566;19.198;2022-08-20T04:21:56;17;9;8
68713;PMS7003;55690;51.566;19.198;2022-08-20T04:25:57;22;19;17
68713;PMS7003;55690;51.566;19.198;2022-08-20T04:30:00;10;9;5
68713;PMS7003;55690;51.566;19.198;2022-08-20T04:34:03;14;11;8
68713;PMS7003;55690;51.566;19.198;2022-08-20T04:38:13;31;21;18
68713;PMS7003;55690;51.566;19.198;2022-08-20T04:42:16;23;23;14
68713;PMS7003;55690;51.566;19.198;2022-08-20T04:46:17;17;10;7
68713;PMS7003;55690;51.566;19.198;2022-08-20T04:50:22;14;14;11
68713;PMS7003;55690;51.566;19.198;2022-08-20T04:54:24;29;22;12
68713;PMS7003;55690;51.566;19.198;2022-08-20T04:58:32;22;15;12
68713;PMS7003;55690;51.566;19.198;2022-08-20T05:02:36;16;15;13
68713;PMS7003;55690;51.566;19.198;2022-08-20T05:06:43;16;16;12
68713;PMS7003;55690;51.566;19.198;2022-08-20T05:10:50;18;16;12
68713;PMS7003;55690;51.566;19.198;2022-08-20T05:14:55;14;14;9
68713;PMS7003;55690;51.566;19.198;2022-08-20T05:19:01;15;14;11
68713;PMS7003;55690;51.566;19.198;2022-08-20T05:23:08;16;16;13
68713;PMS7003;55690;51.566;19.198;2022-08-20T05:27:13;21;18;12
68713;PMS7003;55690;51.566;19.198;2022-08-20T05:31:20;14;14;11
68713;PMS7003;55690;51.566;19.198;2022-08-20T05:35:26;19;15;12
68713;PMS7003;55690;51.566;19.198;2022-08-20T05:39:32;24;19;14
68713;PMS7003;55690;51.566;19.198;2022-08-20T05:43:38;19;16;12
68713;PMS7003;55690;51.566;19.198;2022-08-20T05:47:44;13;12;10
68713;PMS7003;55690;51.566;19.198;2022-08-20T05:51:50;14;13;11
68713;PMS7003;55690;51.566;19.198;2022-08-20T05:55:56;18;15;12
68713;PMS7003;55690;51.566;19.198;2022-08-20T06:00:03;17;17;13
68713;PMS7003;55690;51.566;19.198;2022-08-20T06:04:09;25;15;9
68713;PMS7003;55690;51.566;19.198;2022-08-20T06:08:23;19;13;9
68713;PMS7003;55690;51.566;19.198;2022-08-20T06:12:25;18;15;9
68713;PMS7003;55690;51.566;19.198;2022-08-20T06:16:27;17;17;11
68713;PMS7003;55690;51.566;19.198;2022-08-20T06:20:34;16;15;10
68713;PMS7003;55690;51.566;19.198;2022-08-20T06:24:40;17;17;10
68713;PMS7003;55690;51.566;19.198;2022-08-20T06:28:46;15;12;9
68713;PMS7003;55690;51.566;19.198;2022-08-20T06:32:52;10;10;9
68713;PMS7003;55690;51.566;19.198;2022-08-20T06:36:58;15;11;8
68713;PMS7003;55690;51.566;19.198;2022-08-20T06:41:04;19;14;8
68713;PMS7003;55690;51.566;19.198;2022-08-20T06:49:20;12;11;8
68713;PMS7003;55690;51.566;19.198;2022-08-20T06:57:30;14;12;8
68713;PMS7003;55690;51.566;19.198;2022-08-20T07:01:35;11;11;9
68713;PMS7003;55690;51.566;19.198;2022-08-20T07:13:57;13;12;10
68713;PMS7003;55690;51.566;19.198;2022-08-20T07:18:02;24;18;12
68713;PMS7003;55690;51.566;19.198;2022-08-20T07:22:06;16;8;7
68713;PMS7003;55690;51.566;19.198;2022-08-20T07:26:16;12;9;8
68713;PMS7003;55690;51.566;19.198;2022-08-20T07:30:23;13;10;8
68713;PMS7003;55690;51.566;19.198;2022-08-20T07:34:38;9;9;7
68713;PMS7003;55690;51.566;19.198;2022-08-20T07:38:41;12;12;9
68713;PMS7003;55690;51.566;19.198;2022-08-20T07:42:47;16;15;11
68713;PMS7003;55690;51.566;19.198;2022-08-20T07:46:50;15;11;10
68713;PMS7003;55690;51.566;19.198;2022-08-20T07:50:52;14;12;10
68713;PMS7003;55690;51.566;19.198;2022-08-20T07:54:58;10;10;9
68713;PMS7003;55690;51.566;19.198;2022-08-20T07:59:01;14;14;11
68713;PMS7003;55690;51.566;19.198;2022-08-20T08:03:07;8;6;5
68713;PMS7003;55690;51.566;19.198;2022-08-20T08:07:13;20;12;11
68713;PMS7003;55690;51.566;19.198;2022-08-20T08:11:20;12;12;10
68713;PMS7003;55690;51.566;19.198;2022-08-20T08:15:27;9;9;7
68713;PMS7003;55690;51.566;19.198;2022-08-20T08:19:33;9;9;8
68713;PMS7003;55690;51.566;19.198;2022-08-20T08:23:39;8;8;7
68713;PMS7003;55690;51.566;19.198;2022-08-20T08:27:44;8;8;7
68713;PMS7003;55690;51.566;19.198;2022-08-20T08:31:50;13;4;2
68713;PMS7003;55690;51.566;19.198;2022-08-20T08:36:01;8;7;5
68713;PMS7003;55690;51.566;19.198;2022-08-20T08:40:05;11;11;10
68713;PMS7003;55690;51.566;19.198;2022-08-20T08:44:10;11;10;8
68713;PMS7003;55690;51.566;19.198;2022-08-20T08:48:24;13;12;5
68713;PMS7003;55690;51.566;19.198;2022-08-20T08:52:34;8;8;7
68713;PMS7003;55690;51.566;19.198;2022-08-20T08:56:41;9;9;5
68713;PMS7003;55690;51.566;19.198;2022-08-20T09:00:43;10;8;5
68713;PMS7003;55690;51.566;19.198;2022-08-20T09:04:47;18;12;9
68713;PMS7003;55690;51.566;19.198;2022-08-20T09:13:00;10;10;7
68713;PMS7003;55690;51.566;19.198;2022-08-20T09:17:04;11;7;6
68713;PMS7003;55690;51.566;19.198;2022-08-20T09:21:06;7;7;6
68713;PMS7003;55690;51.566;19.198;2022-08-20T09:25:11;8;5;4
68713;PMS7003;55690;51.566;19.198;2022-08-20T09:29:17;12;9;7
68713;PMS7003;55690;51.566;19.198;2022-08-20T09:33:23;10;9;7
68713;PMS7003;55690;51.566;19.198;2022-08-20T09:37:30;4;4;4
68713;PMS7003;55690;51.566;19.198;2022-08-20T09:41:35;9;9;7
68713;PMS7003;55690;51.566;19.198;2022-08-20T09:45:42;7;6;5
68713;PMS7003;55690;51.566;19.198;2022-08-20T09:49:48;13;7;6
68713;PMS7003;55690;51.566;19.198;2022-08-20T09:53:54;22;7;6
68713;PMS7003;55690;51.566;19.198;2022-08-20T09:58:01;11;9;7
68713;PMS7003;55690;51.566;19.198;2022-08-20T10:02:08;5;5;5
68713;PMS7003;55690;51.566;19.198;2022-08-20T10:06:12;7;5;5
68713;PMS7003;55690;51.566;19.198;2022-08-20T10:10:19;9;9;7
68713;PMS7003;55690;51.566;19.198;2022-08-20T10:14:25;8;4;4
68713;PMS7003;55690;51.566;19.198;2022-08-20T10:18:31;3;3;3
68713;PMS7003;55690;51.566;19.198;2022-08-20T10:22:37;7;7;6
68713;PMS7003;55690;51.566;19.198;2022-08-20T10:26:43;7;7;4
68713;PMS7003;55690;51.566;19.198;2022-08-20T10:30:49;7;7;7
68713;PMS7003;55690;51.566;19.198;2022-08-20T10:34:55;7;7;5
68713;PMS7003;55690;51.566;19.198;2022-08-20T10:39:02;6;6;5
68713;PMS7003;55690;51.566;19.198;2022-08-20T10:43:08;7;7;6
68713;PMS7003;55690;51.566;19.198;2022-08-20T10:51:26;9;5;5
68713;PMS7003;55690;51.566;19.198;2022-08-20T10:55:28;11;8;7
68713;PMS7003;55690;51.566;19.198;2022-08-20T10:59:36;12;5;4
68713;PMS7003;55690;51.566;19.198;2022-08-20T11:03:39;8;7;5
68713;PMS7003;55690;51.566;19.198;2022-08-20T11:07:45;10;6;5
68713;PMS7003;55690;51.566;19.198;2022-08-20T11:11:51;6;4;3
68713;PMS7003;55690;51.566;19.198;2022-08-20T11:15:57;8;6;6
68713;PMS7003;55690;51.566;19.198;2022-08-20T11:20:04;3;3;3
68713;PMS7003;55690;51.566;19.198;2022-08-20T11:24:09;11;7;5
68713;PMS7003;55690;51.566;19.198;2022-08-20T11:28:15;7;5;4
68713;PMS7003;55690;51.566;19.198;2022-08-20T11:32:22;11;7;5
68713;PMS7003;55690;51.566;19.198;2022-08-20T11:36:28;6;3;3
68713;PMS7003;55690;51.566;19.198;2022-08-20T11:40:34;7;6;4
68713;PMS7003;55690;51.566;19.198;2022-08-20T11:44:40;9;9;7
68713;PMS7003;55690;51.566;19.198;2022-08-20T11:48:46;7;7;5
68713;PMS7003;55690;51.566;19.198;2022-08-20T11:52:53;7;7;5
68713;PMS7003;55690;51.566;19.198;2022-08-20T11:56:59;13;8;7
68713;PMS7003;55690;51.566;19.198;2022-08-20T12:01:05;7;6;5
68713;PMS7003;55690;51.566;19.198;2022-08-20T12:05:11;9;9;7
68713;PMS7003;55690;51.566;19.198;2022-08-20T12:09:17;12;9;7
68713;PMS7003;55690;51.566;19.198;2022-08-20T12:13:24;12;7;6
68713;PMS7003;55690;51.566;19.198;2022-08-20T12:17:30;6;6;5
68713;PMS7003;55690;51.566;19.198;2022-08-20T12:21:36;9;9;6
68713;PMS7003;55690;51.566;19.198;2022-08-20T12:25:42;10;9;7
68713;PMS7003;55690;51.566;19.198;2022-08-20T12:29:49;4;3;3
68713;PMS7003;55690;51.566;19.198;2022-08-20T12:33:54;5;5;4
68713;PMS7003;55690;51.566;19.198;2022-08-20T12:38:01;5;5;4
68713;PMS7003;55690;51.566;19.198;2022-08-20T12:42:07;5;3;2
68713;PMS7003;55690;51.566;19.198;2022-08-20T12:46:13;3;3;2
68713;PMS7003;55690;51.566;19.198;2022-08-20T12:50:20;5;5;4
68713;PMS7003;55690;51.566;19.198;2022-08-20T12:54:25;10;6;5
68713;PMS7003;55690;51.566;19.198;2022-08-20T12:58:31;4;4;4
68713;PMS7003;55690;51.566;19.198;2022-08-20T13:02:38;6;6;5
68713;PMS7003;55690;51.566;19.198;2022-08-20T13:06:43;7;4;3
68713;PMS7003;55690;51.566;19.198;2022-08-20T13:10:49;3;3;2
68713;PMS7003;55690;51.566;19.198;2022-08-20T13:14:56;5;5;4
68713;PMS7003;55690;51.566;19.198;2022-08-20T13:19:02;10;9;7
68713;PMS7003;55690;51.566;19.198;2022-08-20T13:23:08;5;5;5
68713;PMS7003;55690;51.566;19.198;2022-08-20T13:27:18;15;7;5
68713;PMS7003;55690;51.566;19.198;2022-08-20T13:31:27;5;5;4
68713;PMS7003;55690;51.566;19.198;2022-08-20T13:35:29;5;5;4
68713;PMS7003;55690;51.566;19.198;2022-08-20T13:39:33;13;8;7
68713;PMS7003;55690;51.566;19.198;2022-08-20T13:43:39;8;7;5
68713;PMS7003;55690;51.566;19.198;2022-08-20T13:47:45;10;7;5
68713;PMS7003;55690;51.566;19.198;2022-08-20T13:51:51;5;4;4
68713;PMS7003;55690;51.566;19.198;2022-08-20T13:55:57;7;7;7
68713;PMS7003;55690;51.566;19.198;2022-08-20T14:00:04;8;8;7
68713;PMS7003;55690;51.566;19.198;2022-08-20T14:04:12;16;7;6
68713;PMS7003;55690;51.566;19.198;2022-08-20T14:08:19;7;7;5
68713;PMS7003;55690;51.566;19.198;2022-08-20T14:12:26;6;6;5
68713;PMS7003;55690;51.566;19.198;2022-08-20T14:16:28;16;8;5
68713;PMS7003;55690;51.566;19.198;2022-08-20T14:20:34;7;7;6
68713;PMS7003;55690;51.566;19.198;2022-08-20T14:24:40;10;8;7
68713;PMS7003;55690;51.566;19.198;2022-08-20T14:28:46;7;7;6
68713;PMS7003;55690;51.566;19.198;2022-08-20T14:32:53;6;6;5
68713;PMS7003;55690;51.566;19.198;2022-08-20T14:41:14;6;6;5
68713;PMS7003;55690;51.566;19.198;2022-08-20T14:45:16;7;7;6
68713;PMS7003;55690;51.566;19.198;2022-08-20T14:49:18;19;12;9
68713;PMS7003;55690;51.566;19.198;2022-08-20T14:53:23;9;9;7
68713;PMS7003;55690;51.566;19.198;2022-08-20T14:57:30;11;10;8
68713;PMS7003;55690;51.566;19.198;2022-08-20T15:01:36;9;8;7
68713;PMS7003;55690;51.566;19.198;2022-08-20T15:05:42;8;8;4
68713;PMS7003;55690;51.566;19.198;2022-08-20T15:09:48;8;8;7
68713;PMS7003;55690;51.566;19.198;2022-08-20T15:13:54;13;10;8
68713;PMS7003;55690;51.566;19.198;2022-08-20T15:18:00;15;10;9
68713;PMS7003;55690;51.566;19.198;2022-08-20T15:22:06;13;10;7
68713;PMS7003;55690;51.566;19.198;2022-08-20T15:26:13;14;13;10
68713;PMS7003;55690;51.566;19.198;2022-08-20T15:30:20;16;12;11
68713;PMS7003;55690;51.566;19.198;2022-08-20T15:34:25;13;13;11
68713;PMS7003;55690;51.566;19.198;2022-08-20T15:38:31;20;7;7
68713;PMS7003;55690;51.566;19.198;2022-08-20T15:42:37;12;12;11
68713;PMS7003;55690;51.566;19.198;2022-08-20T15:46:43;15;10;6
68713;PMS7003;55690;51.566;19.198;2022-08-20T15:51:36;13;13;9
68713;PMS7003;55690;51.566;19.198;2022-08-20T15:55:02;11;10;9
68713;PMS7003;55690;51.566;19.198;2022-08-20T15:59:11;16;9;7
68713;PMS7003;55690;51.566;19.198;2022-08-20T16:16:00;11;11;8
68713;PMS7003;55690;51.566;19.198;2022-08-20T16:20:06;12;11;10
68713;PMS7003;55690;51.566;19.198;2022-08-20T16:32:35;17;10;8
68713;PMS7003;55690;51.566;19.198;2022-08-20T16:40:55;10;10;10
68713;PMS7003;55690;51.566;19.198;2022-08-20T16:49:12;18;10;9
68713;PMS7003;55690;51.566;19.198;2022-08-20T16:53:17;14;12;11
68713;PMS7003;55690;51.566;19.198;2022-08-20T16:57:21;12;12;11
68713;PMS7003;55690;51.566;19.198;2022-08-20T17:01:26;11;9;9
68713;PMS7003;55690;51.566;19.198;2022-08-20T17:05:42;20;15;11
68713;PMS7003;55690;51.566;19.198;2022-08-20T17:09:43;12;11;9
68713;PMS7003;55690;51.566;19.198;2022-08-20T17:13:46;14;12;9
68713;PMS7003;55690;51.566;19.198;2022-08-20T17:17:49;7;7;7
68713;PMS7003;55690;51.566;19.198;2022-08-20T17:21:53;11;9;9
68713;PMS7003;55690;51.566;19.198;2022-08-20T17:26:00;9;9;8
68713;PMS7003;55690;51.566;19.198;2022-08-20T17:34:22;13;13;11
68713;PMS7003;55690;51.566;19.198;2022-08-20T17:38:30;9;9;7
68713;PMS7003;55690;51.566;19.198;2022-08-20T17:46:45;9;9;8
68713;PMS7003;55690;51.566;19.198;2022-08-20T17:50:49;11;8;5
68713;PMS7003;55690;51.566;19.198;2022-08-20T17:54:53;17;13;10
68713;PMS7003;55690;51.566;19.198;2022-08-20T17:59:06;13;12;11
68713;PMS7003;55690;51.566;19.198;2022-08-20T18:33:06;19;14;11
68713;PMS7003;55690;51.566;19.198;2022-08-20T18:45:33;13;9;8
68713;PMS7003;55690;51.566;19.198;2022-08-20T18:49:37;9;9;8
68713;PMS7003;55690;51.566;19.198;2022-08-20T18:53:45;10;10;9
68713;PMS7003;55690;51.566;19.198;2022-08-20T18:57:54;14;13;9
68713;PMS7003;55690;51.566;19.198;2022-08-20T19:01:59;11;11;10
68713;PMS7003;55690;51.566;19.198;2022-08-20T19:10:23;12;12;8
68713;PMS7003;55690;51.566;19.198;2022-08-20T19:22:58;17;17;12
68713;PMS7003;55690;51.566;19.198;2022-08-20T19:27:02;12;12;11
68713;PMS7003;55690;51.566;19.198;2022-08-20T19:31:07;18;12;11
68713;PMS7003;55690;51.566;19.198;2022-08-20T19:35:17;13;13;9
68713;PMS7003;55690;51.566;19.198;2022-08-20T19:39:19;14;13;10
68713;PMS7003;55690;51.566;19.198;2022-08-20T19:43:22;12;12;10
68713;PMS7003;55690;51.566;19.198;2022-08-20T19:47:25;26;15;11
68713;PMS7003;55690;51.566;19.198;2022-08-20T19:51:37;13;13;11
68713;PMS7003;55690;51.566;19.198;2022-08-20T19:55:44;14;14;11
68713;PMS7003;55690;51.566;19.198;2022-08-20T20:04:02;12;12;8
68713;PMS7003;55690;51.566;19.198;2022-08-20T20:08:05;22;18;15
68713;PMS7003;55690;51.566;19.198;2022-08-20T20:16:11;14;14;11
68713;PMS7003;55690;51.566;19.198;2022-08-20T20:20:19;16;16;14
68713;PMS7003;55690;51.566;19.198;2022-08-20T20:24:26;12;11;8
68713;PMS7003;55690;51.566;19.198;2022-08-20T20:32:44;22;17;13
68713;PMS7003;55690;51.566;19.198;2022-08-20T20:36:58;18;14;10
68713;PMS7003;55690;51.566;19.198;2022-08-20T20:41:03;22;22;18
68713;PMS7003;55690;51.566;19.198;2022-08-20T20:45:16;23;20;17
68713;PMS7003;55690;51.566;19.198;2022-08-20T20:49:24;21;18;16
68713;PMS7003;55690;51.566;19.198;2022-08-20T20:53:34;25;22;16
68713;PMS7003;55690;51.566;19.198;2022-08-20T20:57:38;26;19;15
68713;PMS7003;55690;51.566;19.198;2022-08-20T21:01:40;26;24;13
68713;PMS7003;55690;51.566;19.198;2022-08-20T21:05:41;20;18;15
68713;PMS7003;55690;51.566;19.198;2022-08-20T21:13:51;21;21;17
68713;PMS7003;55690;51.566;19.198;2022-08-20T21:19:06;18;18;12
68713;PMS7003;55690;51.566;19.198;2022-08-20T21:23:12;27;22;16
68713;PMS7003;55690;51.566;19.198;2022-08-20T21:27:19;16;11;11
68713;PMS7003;55690;51.566;19.198;2022-08-20T21:31:25;9;9;8
68713;PMS7003;55690;51.566;19.198;2022-08-20T21:39:38;17;16;13
68713;PMS7003;55690;51.566;19.198;2022-08-20T21:43:43;10;8;7
68713;PMS7003;55690;51.566;19.198;2022-08-20T21:47:49;11;11;9
68713;PMS7003;55690;51.566;19.198;2022-08-20T21:51:55;26;15;8
68713;PMS7003;55690;51.566;19.198;2022-08-20T21:56:05;16;16;12
68713;PMS7003;55690;51.566;19.198;2022-08-20T22:00:09;13;12;10
68713;PMS7003;55690;51.566;19.198;2022-08-20T22:04:23;14;13;10
68713;PMS7003;55690;51.566;19.198;2022-08-20T22:08:28;13;13;10
68713;PMS7003;55690;51.566;19.198;2022-08-20T22:12:31;17;16;10
68713;PMS7003;55690;51.566;19.198;2022-08-20T22:16:36;17;13;10
68713;PMS7003;55690;51.566;19.198;2022-08-20T22:20:38;9;9;8
68713;PMS7003;55690;51.566;19.198;2022-08-20T22:24:44;12;12;9
68713;PMS7003;55690;51.566;19.198;2022-08-20T22:28:54;15;15;13
68713;PMS7003;55690;51.566;19.198;2022-08-20T22:33:01;15;8;8
68713;PMS7003;55690;51.566;19.198;2022-08-20T22:37:05;15;11;9
68713;PMS7003;55690;51.566;19.198;2022-08-20T22:41:09;15;15;10
68713;PMS7003;55690;51.566;19.198;2022-08-20T22:45:15;10;7;4
68713;PMS7003;55690;51.566;19.198;2022-08-20T22:49:26;14;14;11
68713;PMS7003;55690;51.566;19.198;2022-08-20T22:53:29;18;16;13
68713;PMS7003;55690;51.566;19.198;2022-08-20T22:57:34;15;10;7
68713;PMS7003;55690;51.566;19.198;2022-08-20T23:01:40;18;12;10
68713;PMS7003;55690;51.566;19.198;2022-08-20T23:05:46;20;16;12
68713;PMS7003;55690;51.566;19.198;2022-08-20T23:09:52;15;12;9
68713;PMS7003;55690;51.566;19.198;2022-08-20T23:13:58;18;14;10
68713;PMS7003;55690;51.566;19.198;2022-08-20T23:22:14;18;18;13
68713;PMS7003;55690;51.566;19.198;2022-08-20T23:26:19;17;16;10
68713;PMS7003;55690;51.566;19.198;2022-08-20T23:30:23;16;16;11
68713;PMS7003;55690;51.566;19.198;2022-08-20T23:38:36;16;15;11
68713;PMS7003;55690;51.566;19.198;2022-08-20T23:42:41;15;12;10
68713;PMS7003;55690;51.566;19.198;2022-08-20T23:46:47;20;15;12
68713;PMS7003;55690;51.566;19.198;2022-08-20T23:50:54;20;15;12
68713;PMS7003;55690;51.566;19.198;2022-08-20T23:55:00;18;18;13
68713;PMS7003;55690;51.566;19.198;2022-08-20T23:59:06;12;12;8
